createdAt,value
2022-12-03T10:54:24.792Z,38.47
2022-12-03T10:59:29.876Z,42.72
2022-12-03T11:04:33.160Z,39.15
2022-12-03T13:13:46.065Z,39.95
2022-12-03T13:19:03.026Z,39.05
2022-12-03T13:24:20.119Z,33.70
2022-12-03T13:29:21.918Z,32.25
2022-12-03T13:34:25.648Z,39.15
2022-12-03T13:39:30.501Z,35.17
2022-12-03T13:44:32.844Z,36.00
2022-12-03T13:49:34.671Z,39.77
2022-12-03T13:54:38.494Z,40.90
2022-12-03T13:59:40.307Z,36.05
2022-12-03T14:04:42.134Z,42.08
2022-12-03T14:09:43.918Z,35.92
2022-12-03T14:14:45.728Z,32.22
2022-12-03T14:19:47.519Z,36.63
2022-12-03T14:24:49.654Z,38.70
2022-12-03T14:29:52.104Z,35.58
2022-12-03T14:34:54.313Z,34.40
2022-12-03T14:39:56.459Z,39.95
2022-12-03T14:44:58.614Z,35.73
2022-12-03T14:50:00.420Z,33.20
2022-12-03T14:55:02.250Z,28.05
2022-12-03T15:00:04.943Z,32.05
2022-12-03T15:05:07.070Z,32.42
2022-12-03T15:10:09.047Z,29.40
2022-12-03T15:15:10.925Z,30.48
2022-12-03T15:20:12.920Z,28.83
2022-12-03T15:25:14.715Z,31.60
2022-12-03T15:30:16.707Z,30.08
2022-12-03T15:35:18.562Z,30.38
2022-12-03T15:40:20.384Z,29.90
2022-12-03T15:45:22.185Z,24.92
2022-12-03T15:50:24.006Z,25.60
2022-12-03T15:55:25.836Z,28.38
2022-12-03T16:00:28.691Z,30.52
2022-12-03T16:05:30.510Z,31.10
2022-12-03T16:10:32.307Z,31.20
2022-12-03T16:15:37.328Z,29.38
2022-12-03T16:20:39.202Z,26.92
2022-12-03T16:25:41.012Z,29.85
2022-12-03T16:30:42.894Z,20.85
2022-12-03T16:35:44.746Z,30.35
2022-12-03T16:40:46.519Z,23.73
2022-12-03T16:45:48.339Z,29.52
2022-12-03T16:50:50.156Z,24.33
2022-12-03T16:55:51.979Z,31.08
2022-12-03T17:00:53.790Z,27.63
2022-12-03T17:05:55.610Z,29.83
2022-12-03T17:10:57.673Z,28.90
2022-12-03T17:15:59.772Z,29.38
2022-12-03T17:21:01.629Z,28.67
2022-12-03T17:26:03.453Z,25.35
2022-12-03T17:31:05.460Z,32.53
2022-12-03T17:36:07.586Z,29.95
2022-12-03T17:41:09.389Z,32.47
2022-12-03T17:46:11.285Z,32.97
2022-12-03T17:51:13.166Z,32.10
2022-12-03T17:56:14.963Z,33.22
2022-12-03T18:01:16.887Z,36.83
2022-12-03T18:06:19.782Z,35.80
2022-12-03T18:11:21.593Z,39.25
2022-12-03T18:16:23.455Z,37.20
2022-12-03T18:21:26.375Z,35.78
2022-12-03T18:26:28.303Z,37.97
2022-12-03T18:31:30.165Z,39.33
2022-12-03T18:36:34.650Z,37.40
2022-12-03T18:41:36.481Z,43.03
2022-12-03T18:46:52.841Z,40.88
2022-12-03T18:51:59.366Z,40.03
2022-12-03T18:57:01.644Z,35.47
2022-12-03T19:02:04.055Z,43.15
2022-12-03T19:07:05.957Z,40.27
2022-12-03T19:12:14.401Z,44.20
2022-12-03T19:17:16.568Z,39.80
2022-12-03T19:22:18.392Z,46.15
2022-12-03T19:27:20.204Z,43.78
2022-12-03T19:32:22.181Z,43.05
2022-12-03T19:37:24.000Z,45.40
2022-12-03T19:42:25.840Z,41.70
2022-12-03T19:47:27.642Z,35.97
2022-12-03T19:52:29.480Z,42.25
2022-12-03T19:57:31.412Z,39.72
2022-12-03T20:02:33.307Z,43.40
2022-12-03T20:07:35.182Z,39.13
2022-12-03T20:12:37.082Z,44.53
2022-12-03T20:17:38.979Z,43.05
2022-12-03T20:22:40.792Z,39.88
2022-12-03T20:27:42.601Z,38.78
2022-12-03T20:32:45.602Z,42.50
2022-12-03T20:42:49.274Z,38.95
2022-12-03T20:47:51.135Z,45.85
2022-12-03T20:53:16.178Z,46.33
2022-12-03T20:58:14.761Z,43.28
2022-12-03T21:03:16.586Z,54.40
2022-12-03T21:08:33.009Z,47.97
2022-12-03T21:13:40.415Z,53.45
2022-12-03T21:18:42.686Z,46.83
2022-12-03T21:23:44.935Z,47.03
2022-12-03T21:28:47.756Z,52.80
2022-12-03T21:33:49.577Z,46.80
2022-12-03T21:38:51.463Z,44.90
2022-12-03T21:43:53.277Z,50.33
2022-12-03T21:48:55.129Z,50.40
2022-12-03T21:53:56.921Z,50.10
2022-12-03T21:58:58.782Z,49.28
2022-12-03T22:04:00.624Z,48.80
2022-12-03T22:09:02.469Z,52.08
2022-12-03T22:14:04.296Z,50.70
2022-12-03T22:19:06.144Z,49.35
2022-12-03T22:24:08.023Z,48.58
2022-12-03T22:29:10.514Z,43.00
2022-12-03T22:34:12.475Z,51.45
2022-12-03T22:39:14.266Z,50.55
2022-12-03T22:44:16.066Z,47.05
2022-12-03T22:49:17.877Z,46.38
2022-12-03T22:54:23.946Z,43.03
2022-12-03T22:59:26.191Z,50.28
2022-12-03T23:04:28.029Z,48.90
2022-12-03T23:09:29.867Z,44.72
2022-12-03T23:14:31.657Z,44.70
2022-12-03T23:19:33.445Z,44.40
2022-12-03T23:24:36.058Z,55.22
2022-12-03T23:29:37.875Z,48.63
2022-12-03T23:34:39.749Z,47.38
2022-12-03T23:39:41.617Z,46.65
2022-12-03T23:44:43.459Z,45.25
2022-12-03T23:49:45.262Z,44.85
2022-12-03T23:54:47.104Z,46.72
2022-12-03T23:59:49.064Z,47.80
